createdAt,value
2018-09-19T00:00:19.090Z,0.00
2018-09-19T00:01:19.060Z,0.00
2018-09-19T00:02:19.051Z,0.00
2018-09-19T00:03:19.092Z,0.00
2018-09-19T00:04:19.027Z,0.00
2018-09-19T00:05:19.037Z,0.00
2018-09-19T00:06:19.006Z,0.00
2018-09-19T00:07:18.993Z,0.00
2018-09-19T00:08:18.983Z,0.00
2018-09-19T00:09:18.973Z,0.00
2018-09-19T00:10:18.963Z,0.00
2018-09-19T00:11:18.965Z,0.00
2018-09-19T00:12:18.948Z,0.00
2018-09-19T00:13:18.929Z,0.00
2018-09-19T00:14:18.921Z,0.00
2018-09-19T00:15:18.911Z,0.00
2018-09-19T00:16:18.935Z,0.00
2018-09-19T00:17:18.888Z,0.00
2018-09-19T00:18:18.889Z,0.00
2018-09-19T00:19:18.868Z,0.00
2018-09-19T00:20:18.957Z,0.00
2018-09-19T00:21:18.841Z,0.00
2018-09-19T00:22:18.853Z,0.00
2018-09-19T00:23:18.823Z,0.00
2018-09-19T00:24:18.829Z,0.00
2018-09-19T00:25:18.802Z,0.00
2018-09-19T00:26:18.793Z,0.00
2018-09-19T00:27:18.808Z,0.00
2018-09-19T00:28:18.768Z,0.00
2018-09-19T00:29:18.759Z,0.00
2018-09-19T00:30:18.748Z,0.00
2018-09-19T00:31:18.740Z,0.00
2018-09-19T00:32:18.740Z,0.00
2018-09-19T00:33:18.720Z,0.00
2018-09-19T00:34:18.705Z,0.00
2018-09-19T00:35:18.703Z,0.00
2018-09-19T00:36:18.686Z,0.00
2018-09-19T00:37:18.689Z,0.00
2018-09-19T00:38:18.664Z,0.00
2018-09-19T00:39:18.653Z,0.00
2018-09-19T00:40:18.660Z,0.00
2018-09-19T00:41:18.631Z,0.00
2018-09-19T00:42:18.633Z,0.00
2018-09-19T00:43:18.610Z,0.00
2018-09-19T00:44:18.600Z,0.00
2018-09-19T00:45:18.592Z,0.00
2018-09-19T00:46:18.582Z,0.00
2018-09-19T00:47:18.581Z,0.00
2018-09-19T00:48:18.559Z,0.00
2018-09-19T00:49:18.560Z,0.00
2018-09-19T00:50:18.535Z,0.00
2018-09-19T00:51:18.525Z,0.00
2018-09-19T00:52:18.514Z,0.00
2018-09-19T00:53:18.522Z,0.00
2018-09-19T00:54:18.511Z,0.00
2018-09-19T00:55:18.482Z,0.00
2018-09-19T00:56:18.475Z,0.00
2018-09-19T00:57:18.461Z,0.00
2018-09-19T00:58:18.453Z,0.00
2018-09-19T00:59:18.456Z,0.00
2018-09-19T01:00:18.437Z,0.00
2018-09-19T01:01:18.420Z,0.00
2018-09-19T01:02:18.424Z,0.00
2018-09-19T01:03:18.398Z,0.00
2018-09-19T01:04:18.384Z,0.00
2018-09-19T01:05:18.390Z,0.00
2018-09-19T01:06:18.381Z,0.00
2018-09-19T01:07:18.362Z,0.00
2018-09-19T01:08:18.340Z,0.00
2018-09-19T01:09:18.329Z,0.00
2018-09-19T01:10:18.323Z,0.00
2018-09-19T01:11:18.384Z,0.00
2018-09-19T01:12:18.298Z,0.00
2018-09-19T01:13:18.294Z,0.00
2018-09-19T01:14:18.279Z,0.00
2018-09-19T01:15:18.269Z,0.00
2018-09-19T01:16:18.282Z,0.00
2018-09-19T01:17:18.260Z,0.00
2018-09-19T01:18:18.233Z,0.00
2018-09-19T01:19:18.224Z,0.00
2018-09-19T01:20:18.215Z,0.00
2018-09-19T01:21:18.200Z,0.00
2018-09-19T01:22:18.202Z,0.00
2018-09-19T01:23:18.178Z,0.00
2018-09-19T01:24:18.183Z,0.00
2018-09-19T01:25:18.189Z,0.00
2018-09-19T01:26:18.143Z,0.00
2018-09-19T01:27:18.158Z,0.00
2018-09-19T01:28:18.128Z,0.00
2018-09-19T01:29:18.113Z,0.00
2018-09-19T01:30:18.100Z,0.00
2018-09-19T01:31:18.088Z,0.00
2018-09-19T01:32:18.148Z,0.00
2018-09-19T03:06:06.653Z,0.00
2018-09-19T03:07:06.400Z,0.00
2018-09-19T03:08:06.402Z,0.00
2018-09-19T03:09:06.378Z,0.00
2018-09-19T03:10:06.384Z,0.00
2018-09-19T03:11:06.352Z,0.00
2018-09-19T03:12:06.342Z,0.00
2018-09-19T03:13:06.348Z,0.00
2018-09-19T03:14:06.323Z,0.00
2018-09-19T03:15:06.311Z,0.00
2018-09-19T03:16:06.311Z,0.00
2018-09-19T03:17:06.395Z,0.00
2018-09-19T03:18:06.301Z,0.00
2018-09-19T03:19:06.279Z,0.00
2018-09-19T03:20:06.260Z,0.00
2018-09-19T03:21:06.261Z,0.00
2018-09-19T03:22:06.237Z,0.00
2018-09-19T03:23:06.229Z,0.00
2018-09-19T03:24:06.227Z,0.00
2018-09-19T03:25:06.203Z,0.00
2018-09-19T03:26:07.167Z,0.00
2018-09-19T03:27:06.182Z,0.00
2018-09-19T03:28:06.176Z,0.00
2018-09-19T03:29:06.158Z,0.00
2018-09-19T03:30:06.161Z,0.00
2018-09-19T03:31:06.140Z,0.00
2018-09-19T03:32:06.127Z,0.00
2018-09-19T03:33:06.114Z,0.00
2018-09-19T03:34:06.118Z,0.00
2018-09-19T03:35:06.093Z,0.00
2018-09-19T03:36:06.090Z,0.00
2018-09-19T03:37:06.084Z,0.00
2018-09-19T03:38:06.065Z,0.00
2018-09-19T03:39:06.062Z,0.00
2018-09-19T03:40:06.075Z,0.00
2018-09-19T03:41:06.024Z,0.00
2018-09-19T03:42:06.015Z,0.00
2018-09-19T03:43:06.006Z,0.00
2018-09-19T03:44:06.024Z,0.00
2018-09-19T03:45:05.980Z,0.00
2018-09-19T03:46:05.983Z,0.00
2018-09-19T03:47:05.959Z,0.00
2018-09-19T03:48:05.946Z,0.00
2018-09-19T03:49:05.939Z,0.00
2018-09-19T03:50:05.942Z,0.00
2018-09-19T03:51:05.918Z,0.00
2018-09-19T03:52:05.910Z,0.00
2018-09-19T03:53:05.897Z,0.00
2018-09-19T03:54:05.905Z,0.00
2018-09-19T03:55:05.873Z,0.00
2018-09-19T03:56:05.859Z,0.00
2018-09-19T03:57:05.849Z,0.00
2018-09-19T03:58:05.934Z,0.00
2018-09-19T03:59:05.829Z,0.00
2018-09-19T04:00:05.853Z,0.00
2018-09-19T04:01:05.807Z,0.00
2018-09-19T04:02:05.793Z,0.00
2018-09-19T04:03:05.782Z,0.00
2018-09-19T04:04:05.771Z,0.00
2018-09-19T04:05:05.770Z,0.00
2018-09-19T04:06:05.769Z,0.00
2018-09-19T04:07:05.736Z,0.00
2018-09-19T04:08:05.729Z,0.00
2018-09-19T04:09:05.719Z,0.00
2018-09-19T04:10:05.705Z,0.00
2018-09-19T04:11:05.709Z,0.00
2018-09-19T04:12:05.685Z,0.00
2018-09-19T04:13:05.676Z,0.00
2018-09-19T04:14:05.661Z,0.00
2018-09-19T04:15:05.661Z,0.00
2018-09-19T04:16:05.655Z,0.00
2018-09-19T04:17:05.629Z,0.00
2018-09-19T04:18:05.619Z,0.00
2018-09-19T04:19:05.604Z,0.00
2018-09-19T04:20:05.595Z,0.00
2018-09-19T04:21:05.581Z,0.00
2018-09-19T04:22:05.594Z,0.00
2018-09-19T04:23:05.572Z,0.00
2018-09-19T04:24:05.553Z,0.00
2018-09-19T04:25:05.544Z,0.00
2018-09-19T04:26:05.526Z,0.00
2018-09-19T04:27:05.531Z,0.00
2018-09-19T04:28:05.504Z,0.00
2018-09-19T04:29:05.505Z,0.00
2018-09-19T04:30:05.484Z,0.00
2018-09-19T04:31:05.479Z,0.00
2018-09-19T04:32:05.527Z,0.00
2018-09-19T04:33:05.452Z,0.00
2018-09-19T04:34:05.444Z,0.00
2018-09-19T04:35:05.431Z,0.00
2018-09-19T04:36:05.419Z,0.00
2018-09-19T04:37:05.405Z,0.00
2018-09-19T04:38:05.407Z,0.00
2018-09-19T04:39:05.393Z,0.00
2018-09-19T04:40:05.374Z,0.00
2018-09-19T04:41:05.377Z,0.00
2018-09-19T04:42:05.349Z,0.00
2018-09-19T04:43:05.353Z,0.00
2018-09-19T04:44:05.327Z,0.00
2018-09-19T04:45:05.368Z,0.00
2018-09-19T04:46:05.307Z,0.00
2018-09-19T04:47:05.337Z,0.00
2018-09-19T04:48:05.282Z,0.00
2018-09-19T04:49:05.273Z,0.00
2018-09-19T04:50:05.260Z,0.00
2018-09-19T04:51:05.249Z,0.00
2018-09-19T04:52:05.242Z,0.00
2018-09-19T04:53:05.245Z,0.00
2018-09-19T04:54:05.220Z,0.00
2018-09-19T04:55:05.209Z,0.00
2018-09-19T04:56:05.219Z,0.00
2018-09-19T04:57:05.192Z,0.00
2018-09-19T04:58:05.179Z,5.62
2018-09-19T04:59:05.168Z,5.62
2018-09-19T05:00:05.150Z,5.62
2018-09-19T05:01:05.143Z,5.62
2018-09-19T05:02:05.146Z,5.62
2018-09-19T05:03:05.118Z,5.62
2018-09-19T05:04:05.108Z,11.25
2018-09-19T05:05:05.117Z,11.25
2018-09-19T05:06:05.086Z,11.25
2018-09-19T05:07:05.089Z,16.88
2018-09-19T05:08:05.066Z,16.88
2018-09-19T05:09:05.055Z,16.88
2018-09-19T05:10:05.041Z,22.50
2018-09-19T05:11:05.031Z,22.50
2018-09-19T05:12:05.034Z,28.12
2018-09-19T05:13:05.013Z,28.12
2018-09-19T05:14:05.000Z,33.75
2018-09-19T05:15:04.988Z,33.75
2018-09-19T05:16:04.974Z,39.38
2018-09-19T05:17:04.985Z,39.38
2018-09-19T05:18:04.964Z,45.00
2018-09-19T05:19:04.941Z,45.00
2018-09-19T05:20:04.933Z,45.00
2018-09-19T05:21:04.927Z,45.00
2018-09-19T05:22:04.929Z,50.62
2018-09-19T05:23:04.898Z,50.62
2018-09-19T05:24:04.903Z,50.62
2018-09-19T05:25:04.875Z,50.62
2018-09-19T05:26:04.867Z,56.25
2018-09-19T05:27:04.855Z,56.25
2018-09-19T05:28:04.858Z,56.25
2018-09-19T05:29:04.836Z,61.88
2018-09-19T05:30:04.821Z,61.88
2018-09-19T05:31:04.811Z,67.50
2018-09-19T05:32:04.797Z,67.50
2018-09-19T05:33:04.802Z,73.12
2018-09-19T05:34:04.778Z,73.12
2018-09-19T05:35:04.765Z,73.12
2018-09-19T05:36:04.755Z,78.75
2018-09-19T05:37:04.746Z,78.75
2018-09-19T05:38:04.746Z,84.38
2018-09-19T05:39:04.725Z,84.38
2018-09-19T05:40:04.716Z,90.00
2018-09-19T05:41:04.725Z,90.00
2018-09-19T05:42:04.693Z,95.62
2018-09-19T05:43:04.681Z,95.62
2018-09-19T05:44:04.674Z,101.25
2018-09-19T05:45:04.661Z,101.25
2018-09-19T05:46:04.653Z,106.88
2018-09-19T05:47:04.652Z,106.88
2018-09-19T05:48:04.660Z,106.88
2018-09-19T05:49:04.615Z,106.88
2018-09-19T05:50:04.606Z,106.88
2018-09-19T05:51:04.598Z,106.88
2018-09-19T05:52:04.599Z,112.50
2018-09-19T05:53:04.572Z,112.50
2018-09-19T05:54:04.561Z,112.50
2018-09-19T05:55:04.553Z,118.12
2018-09-19T05:56:04.541Z,112.50
2018-09-19T05:57:04.543Z,118.12
2018-09-19T05:58:04.524Z,118.12
2018-09-19T05:59:04.510Z,118.12
2018-09-19T06:00:04.500Z,123.75
2018-09-19T06:01:04.489Z,123.75
2018-09-19T06:02:04.494Z,123.75
2018-09-19T06:03:04.468Z,123.75
2018-09-19T06:04:04.462Z,123.75
2018-09-19T06:05:04.481Z,129.38
2018-09-19T06:06:04.465Z,129.38
2018-09-19T06:07:04.426Z,135.00
2018-09-19T06:08:04.418Z,140.62
2018-09-19T06:09:04.403Z,146.25
2018-09-19T06:10:04.393Z,151.88
2018-09-19T06:11:04.393Z,157.50
2018-09-19T06:12:04.386Z,163.12
2018-09-19T06:13:04.388Z,163.12
2018-09-19T06:14:04.435Z,168.75
2018-09-19T06:15:04.339Z,174.38
2018-09-19T06:16:04.336Z,180.00
2018-09-19T06:17:04.327Z,185.62
2018-09-19T06:18:04.309Z,185.62
2018-09-19T06:19:04.312Z,191.25
2018-09-19T06:20:04.330Z,196.88
2018-09-19T06:21:04.274Z,202.50
2018-09-19T06:22:04.279Z,208.12
2018-09-19T06:23:04.254Z,213.75
2018-09-19T06:24:04.243Z,213.75
2018-09-19T06:25:04.237Z,219.38
2018-09-19T06:26:04.221Z,225.00
2018-09-19T06:27:04.286Z,225.00
2018-09-19T06:28:04.216Z,225.00
2018-09-19T06:29:04.216Z,219.38
2018-09-19T06:30:04.184Z,219.38
2018-09-19T06:31:04.171Z,225.00
2018-09-19T06:32:04.155Z,230.62
2018-09-19T06:33:04.257Z,241.88
2018-09-19T06:34:04.135Z,258.75
2018-09-19T06:35:04.243Z,264.38
2018-09-19T06:36:04.113Z,270.00
2018-09-19T06:37:04.119Z,270.00
2018-09-19T06:38:04.103Z,275.62
2018-09-19T06:39:04.084Z,281.25
2018-09-19T06:40:04.137Z,281.25
2018-09-19T06:41:04.203Z,281.25
2018-09-19T06:42:04.044Z,286.88
2018-09-19T06:43:04.057Z,286.88
2018-09-19T06:44:04.027Z,292.50
2018-09-19T06:45:04.048Z,298.12
2018-09-19T06:46:04.009Z,303.75
2018-09-19T06:47:04.012Z,303.75
2018-09-19T06:48:03.984Z,309.38
2018-09-19T06:49:03.964Z,315.00
2018-09-19T06:50:03.988Z,315.00
2018-09-19T06:51:03.958Z,326.25
2018-09-19T06:52:03.973Z,331.88
2018-09-19T06:53:03.921Z,337.50
2018-09-19T06:54:03.913Z,354.38
2018-09-19T06:55:03.953Z,427.50
2018-09-19T06:56:03.924Z,466.88
2018-09-19T06:57:03.878Z,483.75
2018-09-19T06:58:03.868Z,590.62
2018-09-19T06:59:03.858Z,523.12
2018-09-19T07:00:03.842Z,551.25
2018-09-19T07:01:03.833Z,551.25
2018-09-19T07:02:03.835Z,675.00
2018-09-19T07:03:03.809Z,607.50
2018-09-19T07:04:03.806Z,489.38
2018-09-19T07:05:03.810Z,585.00
2018-09-19T07:06:03.798Z,630.00
2018-09-19T07:07:03.803Z,680.62
2018-09-19T07:08:03.755Z,736.88
2018-09-19T07:09:03.742Z,759.38
2018-09-19T07:10:03.733Z,759.38
2018-09-19T07:11:03.720Z,826.88
2018-09-19T07:12:03.728Z,843.75
2018-09-19T07:13:03.700Z,866.25
2018-09-19T07:14:03.689Z,877.50
2018-09-19T07:15:03.677Z,877.50
2018-09-19T07:16:03.674Z,860.62
2018-09-19T07:17:03.663Z,877.50
2018-09-19T07:18:03.662Z,894.38
2018-09-19T07:19:03.758Z,911.25
2018-09-19T07:20:03.627Z,916.88
2018-09-19T07:21:03.631Z,916.88
2018-09-19T07:22:03.604Z,939.38
2018-09-19T07:23:03.615Z,950.62
2018-09-19T07:24:03.626Z,961.88
2018-09-19T07:25:03.612Z,961.88
2018-09-19T07:26:03.561Z,973.12
2018-09-19T07:27:03.548Z,984.38
2018-09-19T07:28:03.536Z,990.00
2018-09-19T07:29:03.538Z,973.12
2018-09-19T07:30:03.513Z,956.25
2018-09-19T07:31:03.518Z,967.50
2018-09-19T07:32:03.505Z,978.75
2018-09-19T07:33:03.482Z,1040.62
2018-09-19T07:34:03.506Z,1051.88
2018-09-19T07:35:03.460Z,1051.88
2018-09-19T07:36:03.447Z,1085.62
2018-09-19T07:37:03.468Z,1125.00
2018-09-19T07:38:03.427Z,1141.88
2018-09-19T07:39:03.429Z,1153.12
2018-09-19T07:40:03.429Z,1147.50
2018-09-19T07:41:03.394Z,1170.00
2018-09-19T07:42:03.385Z,1215.00
2018-09-19T07:43:03.384Z,1271.25
2018-09-19T07:44:03.408Z,1265.62
2018-09-19T07:45:03.368Z,1248.75
2018-09-19T07:46:03.337Z,1209.38
2018-09-19T07:47:03.330Z,1265.62
2018-09-19T07:48:03.317Z,1254.38
2018-09-19T07:49:03.334Z,1248.75
2018-09-19T07:50:03.299Z,1282.50
2018-09-19T07:51:03.303Z,1344.38
2018-09-19T07:52:03.277Z,1417.50
2018-09-19T07:53:03.268Z,1462.50
2018-09-19T07:54:03.257Z,1423.12
2018-09-19T07:55:03.265Z,1406.25
2018-09-19T07:56:03.234Z,1411.88
2018-09-19T07:57:03.219Z,1440.00
2018-09-19T07:58:03.209Z,1479.38
2018-09-19T07:59:03.201Z,1496.25
2018-09-19T08:00:03.201Z,1485.00
2018-09-19T08:01:03.258Z,1456.88
2018-09-19T08:02:03.164Z,1456.88
2018-09-19T08:03:03.155Z,1473.75
2018-09-19T08:04:03.160Z,1485.00
2018-09-19T08:05:03.148Z,1490.62
2018-09-19T08:06:03.120Z,1485.00
2018-09-19T08:07:03.126Z,1518.75
2018-09-19T08:08:03.102Z,1518.75
2018-09-19T08:09:03.103Z,1451.25
2018-09-19T08:10:03.079Z,1558.12
2018-09-19T08:11:03.080Z,1558.12
2018-09-19T08:12:03.073Z,1524.38
2018-09-19T08:13:03.046Z,1535.62
2018-09-19T08:14:03.041Z,1518.75
2018-09-19T08:15:03.039Z,1541.25
2018-09-19T08:16:03.024Z,1530.00
2018-09-19T08:17:03.126Z,1496.25
2018-09-19T08:18:03.009Z,1501.88
2018-09-19T08:19:03.011Z,1440.00
2018-09-19T08:20:02.971Z,1434.38
2018-09-19T08:21:02.973Z,1546.88
2018-09-19T08:22:02.971Z,1552.50
2018-09-19T08:23:02.942Z,1563.75
2018-09-19T08:24:02.926Z,1541.25
2018-09-19T08:25:02.960Z,1546.88
2018-09-19T08:26:02.908Z,1575.00
2018-09-19T08:27:02.912Z,1558.12
2018-09-19T08:28:02.887Z,1552.50
2018-09-19T08:29:02.882Z,1608.75
2018-09-19T08:30:02.867Z,1631.25
2018-09-19T08:31:02.849Z,1586.25
2018-09-19T08:32:02.862Z,1620.00
2018-09-19T08:33:02.832Z,1631.25
2018-09-19T08:34:02.828Z,1620.00
2018-09-19T08:35:02.812Z,1653.75
2018-09-19T08:36:02.802Z,1653.75
2018-09-19T08:37:02.790Z,1676.25
2018-09-19T08:38:02.789Z,1721.25
2018-09-19T08:39:02.801Z,1771.88
2018-09-19T08:40:02.755Z,1794.38
2018-09-19T08:41:02.745Z,1783.12
2018-09-19T08:42:02.736Z,1777.50
2018-09-19T08:43:02.723Z,1760.62
2018-09-19T08:44:02.721Z,1738.12
2018-09-19T08:45:02.719Z,1693.12
2018-09-19T08:46:02.689Z,1755.00
2018-09-19T08:47:02.685Z,1755.00
2018-09-19T08:48:02.670Z,1777.50
2018-09-19T08:49:02.677Z,1687.50
2018-09-19T08:50:02.691Z,1867.50
2018-09-19T08:51:02.639Z,1974.38
2018-09-19T08:52:02.631Z,1985.62
2018-09-19T08:53:02.623Z,2019.38
2018-09-19T08:54:02.607Z,2086.88
2018-09-19T08:55:02.611Z,2098.12
2018-09-19T08:56:02.584Z,2143.12
2018-09-19T08:57:02.607Z,2182.50
2018-09-19T08:58:02.564Z,2098.12
2018-09-19T08:59:02.552Z,2075.62
2018-09-19T09:00:02.557Z,2086.88
2018-09-19T09:01:02.531Z,2098.12
2018-09-19T09:02:02.538Z,2075.62
2018-09-19T09:03:02.509Z,2047.50
2018-09-19T09:04:02.499Z,2160.00
2018-09-19T09:05:02.515Z,2165.62
2018-09-19T09:06:02.479Z,2176.88
2018-09-19T09:07:02.485Z,2098.12
2018-09-19T09:08:02.458Z,2148.75
2018-09-19T09:09:02.481Z,2199.38
2018-09-19T09:10:02.455Z,2261.25
2018-09-19T09:11:02.504Z,2227.50
2018-09-19T09:12:02.480Z,2210.62
2018-09-19T09:13:02.422Z,2205.00
2018-09-19T09:14:02.398Z,2120.62
2018-09-19T09:15:02.383Z,2205.00
2018-09-19T09:16:02.375Z,2238.75
2018-09-19T09:17:02.389Z,2289.38
2018-09-19T09:18:02.353Z,2345.62
2018-09-19T09:19:02.345Z,2311.88
2018-09-19T09:20:02.389Z,2238.75
2018-09-19T09:21:02.325Z,2317.50
2018-09-19T09:22:02.311Z,2362.50
2018-09-19T09:23:02.311Z,2334.38
2018-09-19T09:24:02.292Z,2401.88
2018-09-19T09:25:02.279Z,2441.25
2018-09-19T09:26:02.327Z,2379.38
2018-09-19T09:27:02.510Z,2385.00
2018-09-19T09:28:02.246Z,2385.00
2018-09-19T09:29:02.274Z,2413.12
2018-09-19T09:30:02.230Z,2401.88
2018-09-19T09:31:02.278Z,2373.75
2018-09-19T09:32:02.301Z,2407.50
2018-09-19T09:33:02.196Z,2458.12
2018-09-19T09:34:02.223Z,2446.88
2018-09-19T09:35:02.189Z,2480.62
2018-09-19T09:36:02.160Z,2559.38
2018-09-19T09:37:02.195Z,2548.12
2018-09-19T09:38:02.162Z,2576.25
2018-09-19T09:39:02.136Z,2570.62
2018-09-19T09:40:02.123Z,2531.25
2018-09-19T09:41:02.112Z,2604.38
2018-09-19T09:42:02.100Z,2497.50
2018-09-19T09:43:02.104Z,2497.50
2018-09-19T09:44:02.080Z,2570.62
2018-09-19T09:45:02.091Z,2520.00
2018-09-19T09:46:02.084Z,2610.00
2018-09-19T09:47:02.051Z,2756.25
2018-09-19T09:48:02.060Z,2700.00
2018-09-19T09:49:02.036Z,2671.88
2018-09-19T09:50:02.077Z,2576.25
2018-09-19T09:51:02.022Z,2542.50
2018-09-19T09:52:01.997Z,2559.38
2018-09-19T09:53:01.987Z,2621.25
2018-09-19T09:54:01.998Z,2638.12
2018-09-19T09:55:02.013Z,2655.00
2018-09-19T09:56:01.956Z,2716.88
2018-09-19T09:57:01.944Z,2745.00
2018-09-19T09:58:01.937Z,2784.38
2018-09-19T09:59:01.926Z,2840.62
2018-09-19T10:00:01.958Z,2587.50
2018-09-19T10:01:01.953Z,2553.75
2018-09-19T10:02:01.959Z,2671.88
2018-09-19T10:03:01.887Z,2722.50
2018-09-19T10:04:01.874Z,2767.50
2018-09-19T10:05:01.862Z,2840.62
2018-09-19T10:06:01.874Z,2801.25
2018-09-19T10:07:01.842Z,2756.25
2018-09-19T10:08:01.834Z,2660.62
2018-09-19T10:09:01.824Z,2722.50
2018-09-19T10:10:01.823Z,2756.25
2018-09-19T10:11:01.805Z,2655.00
2018-09-19T10:12:01.815Z,2671.88
2018-09-19T10:13:01.781Z,2716.88
2018-09-19T10:14:01.810Z,2756.25
2018-09-19T10:15:01.764Z,2649.38
2018-09-19T10:16:01.765Z,2548.12
2018-09-19T10:17:01.736Z,2542.50
2018-09-19T10:18:01.774Z,2643.75
2018-09-19T10:19:01.732Z,2671.88
2018-09-19T10:20:01.707Z,2649.38
2018-09-19T10:21:01.832Z,2649.38
2018-09-19T10:22:01.698Z,2638.12
2018-09-19T10:23:01.720Z,2728.12
2018-09-19T10:24:01.665Z,2784.38
2018-09-19T10:25:01.669Z,2778.75
2018-09-19T10:26:01.647Z,2818.12
2018-09-19T10:27:01.639Z,2593.12
2018-09-19T10:28:01.637Z,2531.25
2018-09-19T10:29:01.677Z,2441.25
2018-09-19T10:30:01.622Z,2587.50
2018-09-19T10:31:01.596Z,2632.50
2018-09-19T10:32:01.584Z,2621.25
2018-09-19T10:33:01.569Z,2643.75
2018-09-19T10:34:01.593Z,2520.00
2018-09-19T10:35:01.579Z,2756.25
2018-09-19T10:36:01.544Z,2784.38
2018-09-19T10:37:01.532Z,2756.25
2018-09-19T10:38:01.532Z,2733.75
2018-09-19T10:39:01.509Z,1203.75
2018-09-19T10:40:01.606Z,1794.38
2018-09-19T10:41:01.489Z,2626.88
2018-09-19T10:42:01.479Z,2531.25
2018-09-19T10:43:01.465Z,2025.00
2018-09-19T10:44:01.516Z,2655.00
2018-09-19T10:45:01.460Z,2801.25
2018-09-19T10:46:01.501Z,2891.25
2018-09-19T10:47:01.461Z,2795.62
2018-09-19T10:48:01.435Z,1755.00
2018-09-19T10:49:01.499Z,2913.75
2018-09-19T10:50:01.395Z,2801.25
2018-09-19T10:51:01.395Z,2570.62
2018-09-19T10:52:01.372Z,2615.62
2018-09-19T10:53:01.362Z,2649.38
2018-09-19T10:54:01.379Z,1108.12
2018-09-19T10:55:01.344Z,2885.62
2018-09-19T10:56:01.374Z,2829.38
2018-09-19T10:57:01.373Z,2733.75
2018-09-19T10:58:01.313Z,2677.50
2018-09-19T10:59:01.301Z,2587.50
2018-09-19T11:00:01.309Z,2722.50
2018-09-19T11:01:01.281Z,2801.25
2018-09-19T11:02:01.282Z,2868.75
2018-09-19T11:03:01.259Z,2829.38
2018-09-19T11:04:01.254Z,2908.12
2018-09-19T11:05:02.020Z,2896.88
2018-09-19T11:06:01.226Z,2880.00
2018-09-19T11:07:01.392Z,2857.50
2018-09-19T11:08:01.206Z,2778.75
2018-09-19T11:09:01.195Z,2666.25
2018-09-19T11:10:01.188Z,2649.38
2018-09-19T11:11:01.201Z,2756.25
2018-09-19T11:12:01.168Z,2868.75
2018-09-19T11:13:01.155Z,2896.88
2018-09-19T11:14:01.146Z,3060.00
2018-09-19T11:15:01.133Z,3071.25
2018-09-19T11:16:01.122Z,3088.12
2018-09-19T11:17:01.137Z,2958.75
2018-09-19T11:18:01.129Z,2970.00
2018-09-19T11:19:01.093Z,2975.62
2018-09-19T11:20:01.081Z,2913.75
2018-09-19T11:21:01.069Z,2874.38
2018-09-19T11:22:01.059Z,2930.62
2018-09-19T11:23:01.054Z,2812.50
2018-09-19T11:24:01.156Z,2891.25
2018-09-19T11:25:01.077Z,2947.50
2018-09-19T11:26:01.018Z,1192.50
2018-09-19T11:27:01.008Z,2829.38
2018-09-19T11:28:00.999Z,2418.75
2018-09-19T11:29:00.987Z,2913.75
2018-09-19T11:30:00.989Z,1035.00
2018-09-19T11:31:00.968Z,821.25
2018-09-19T11:32:00.959Z,804.38
2018-09-19T11:33:00.958Z,3009.38
2018-09-19T11:34:00.937Z,1738.12
2018-09-19T11:35:00.945Z,1001.25
2018-09-19T11:36:00.916Z,3026.25
2018-09-19T11:37:00.918Z,3037.50
2018-09-19T11:38:00.948Z,1170.00
2018-09-19T11:39:00.902Z,978.75
2018-09-19T11:40:00.876Z,877.50
2018-09-19T11:41:00.862Z,894.38
2018-09-19T11:42:00.856Z,1096.88
2018-09-19T11:43:00.843Z,973.12
2018-09-19T11:44:00.851Z,978.75
2018-09-19T11:45:00.830Z,928.12
2018-09-19T11:46:00.814Z,894.38
2018-09-19T11:47:00.801Z,905.62
2018-09-19T11:48:00.792Z,821.25
2018-09-19T11:49:00.779Z,736.88
2018-09-19T11:50:00.789Z,663.75
2018-09-19T11:51:00.757Z,759.38
2018-09-19T11:52:00.766Z,2947.50
2018-09-19T11:53:00.737Z,900.00
2018-09-19T11:54:00.728Z,2418.75
2018-09-19T11:55:00.732Z,838.12
2018-09-19T11:56:00.785Z,770.62
2018-09-19T11:57:00.693Z,708.75
2018-09-19T11:58:00.735Z,821.25
2018-09-19T11:59:00.693Z,826.88
2018-09-19T12:00:00.698Z,855.00
2018-09-19T12:01:00.664Z,950.62
2018-09-19T12:02:00.660Z,2992.50
2018-09-19T12:03:00.627Z,2880.00
2018-09-19T12:04:00.622Z,3172.50
2018-09-19T12:05:00.613Z,3178.12
2018-09-19T12:06:00.610Z,3172.50
2018-09-19T12:07:00.589Z,3166.88
2018-09-19T12:08:00.579Z,3127.50
2018-09-19T12:09:00.564Z,3178.12
2018-09-19T12:10:00.562Z,3015.00
2018-09-19T12:11:00.586Z,3166.88
2018-09-19T12:12:00.532Z,3144.38
2018-09-19T12:13:00.539Z,3127.50
2018-09-19T12:14:00.516Z,2953.12
2018-09-19T12:15:00.502Z,3285.00
2018-09-19T12:16:00.495Z,3245.62
2018-09-19T12:17:00.525Z,2925.00
2018-09-19T12:18:00.476Z,2857.50
2018-09-19T12:19:00.460Z,1445.62
2018-09-19T12:20:00.450Z,1850.62
2018-09-19T12:21:00.456Z,1186.88
2018-09-19T12:22:00.431Z,1029.38
2018-09-19T12:23:00.452Z,995.62
2018-09-19T12:24:00.413Z,849.38
2018-09-19T12:25:00.398Z,1012.50
2018-09-19T12:26:00.408Z,1085.62
2018-09-19T12:27:00.423Z,1586.25
2018-09-19T12:28:00.366Z,928.12
2018-09-19T12:29:00.374Z,2812.50
2018-09-19T12:30:00.352Z,1518.75
2018-09-19T12:31:00.339Z,1012.50
2018-09-19T12:32:00.325Z,1231.88
2018-09-19T12:33:00.324Z,2705.62
2018-09-19T12:34:00.311Z,2880.00
2018-09-19T12:35:00.297Z,2823.75
2018-09-19T12:36:00.309Z,2626.88
2018-09-19T12:37:00.275Z,2604.38
2018-09-19T12:38:00.358Z,2463.75
2018-09-19T12:39:00.261Z,2576.25
2018-09-19T12:40:00.246Z,2536.88
2018-09-19T12:41:00.231Z,2508.75
2018-09-19T12:42:00.221Z,2565.00
2018-09-19T12:43:00.272Z,2463.75
2018-09-19T12:44:00.201Z,2373.75
2018-09-19T12:45:00.189Z,2266.88
2018-09-19T12:46:00.182Z,2401.88
2018-09-19T12:47:00.182Z,2345.62
2018-09-19T12:48:00.177Z,2373.75
2018-09-19T12:49:00.167Z,2469.38
2018-09-19T12:50:00.244Z,2199.38
2018-09-19T12:51:00.126Z,2469.38
2018-09-19T12:52:00.124Z,2497.50
2018-09-19T12:53:00.106Z,2418.75
2018-09-19T12:54:00.110Z,2407.50
2018-09-19T12:55:00.105Z,2469.38
2018-09-19T12:56:00.076Z,2475.00
2018-09-19T12:57:00.066Z,2458.12
2018-09-19T12:58:00.053Z,2334.38
2018-09-19T12:59:00.045Z,2373.75
2018-09-19T13:00:00.036Z,2385.00
2018-09-19T13:01:00.061Z,2396.25
2018-09-19T13:02:00.013Z,2356.88
2018-09-19T13:03:00.004Z,2306.25
2018-09-19T13:03:59.995Z,2345.62
2018-09-19T13:04:59.984Z,2328.75
2018-09-19T13:05:59.984Z,2345.62
2018-09-19T13:06:59.975Z,2306.25
2018-09-19T13:07:59.954Z,2171.25
2018-09-19T13:08:59.945Z,2210.62
2018-09-19T13:09:59.968Z,2120.62
2018-09-19T13:10:59.923Z,2272.50
2018-09-19T13:11:59.909Z,2334.38
2018-09-19T13:12:59.939Z,2306.25
2018-09-19T13:13:59.889Z,2266.88
2018-09-19T13:14:59.878Z,2233.12
2018-09-19T13:15:59.885Z,2216.25
2018-09-19T13:16:59.870Z,1642.50
2018-09-19T13:17:59.854Z,2148.75
2018-09-19T13:18:59.838Z,2238.75
2018-09-19T13:19:59.826Z,1631.25
2018-09-19T13:20:59.830Z,1726.88
2018-09-19T13:21:59.810Z,933.75
2018-09-19T13:22:59.797Z,826.88
2018-09-19T13:23:59.785Z,916.88
2018-09-19T13:24:59.810Z,810.00
2018-09-19T13:25:59.777Z,815.62
2018-09-19T13:26:59.770Z,691.88
2018-09-19T13:27:59.744Z,770.62
2018-09-19T13:28:59.793Z,900.00
2018-09-19T13:29:59.724Z,866.25
2018-09-19T13:30:59.713Z,984.38
2018-09-19T13:31:59.722Z,916.88
2018-09-19T13:32:59.690Z,2092.50
2018-09-19T13:33:59.683Z,2115.00
2018-09-19T13:34:59.735Z,2300.62
2018-09-19T13:35:59.678Z,900.00
2018-09-19T13:36:59.647Z,855.00
2018-09-19T13:37:59.647Z,810.00
2018-09-19T13:38:59.629Z,1361.25
2018-09-19T13:39:59.617Z,849.38
2018-09-19T13:40:59.606Z,1102.50
2018-09-19T13:41:59.595Z,2306.25
2018-09-19T13:42:59.611Z,933.75
2018-09-19T13:43:59.577Z,1856.25
2018-09-19T13:44:59.567Z,2182.50
2018-09-19T13:45:59.556Z,2205.00
2018-09-19T13:46:59.546Z,2103.75
2018-09-19T13:47:59.548Z,1119.38
2018-09-19T13:48:59.523Z,1980.00
2018-09-19T13:49:59.530Z,1546.88
2018-09-19T13:50:59.504Z,2019.38
2018-09-19T13:51:59.492Z,2109.38
2018-09-19T13:52:59.491Z,2109.38
2018-09-19T13:53:59.486Z,1912.50
2018-09-19T13:54:59.459Z,781.88
2018-09-19T13:55:59.451Z,849.38
2018-09-19T13:56:59.458Z,714.38
2018-09-19T13:57:59.429Z,742.50
2018-09-19T13:58:59.517Z,838.12
2018-09-19T13:59:59.408Z,1957.50
2018-09-19T14:00:59.397Z,2115.00
2018-09-19T14:01:59.387Z,810.00
2018-09-19T14:02:59.373Z,1878.75
2018-09-19T14:03:59.366Z,1946.25
2018-09-19T14:04:59.370Z,1963.12